WXM80 ListenWXM80 Stop

You find our weather info also at:

UK Metoffice

WeatherCloud

Weather Underground

Northeastern Weather Network

AWEKAS

Citizen Weather Observer Program (CWOP)

HAMweather, WeatherForYou, PWS Weather


Weather Underground History page Text

Daily Summary for June 19, 2017 Units:  English    Metric   Both
« Previous Day
Next Day »
Daily Weekly Monthly Yearly Custom
  High: Low: Average:
Temperature: 86.3 °F 69.3 °F 76.9 °F
Dew Point: 76.9 °F 68.1 °F 72.4 °F
Humidity: 96 % 70 % 87 %
Wind Speed: 9.0 mph 0.0 mph 2.2 mph
Wind Gust: 19.6 mph - -
Wind:- - South
Pressure: 29.84 in 29.72 in -
Precipitation: 0.97 in    
Historical Graphs
 
 
Tabular Data for June 19, 2017
Time Temperature Dew Point Pressure Wind Wind Speed Wind Gust Humidity Rainfall Rate (Hourly)
00:00 73.6 °F 71.4 °F 29.79 in South 1.2 mph 6.9 mph 93 % 0.00 in
00:05 73.6 °F 71.4 °F 29.79 in SSE 2.0 mph 4.6 mph 93 % 0.00 in
00:10 73.6 °F 71.4 °F 29.79 in SE 1.8 mph 4.0 mph 93 % 0.00 in
00:15 73.6 °F 71.4 °F 29.79 in South 0.7 mph 2.0 mph 93 % 0.00 in
00:20 73.5 °F 71.4 °F 29.79 in SSE 3.0 mph 8.1 mph 93 % 0.00 in
00:25 73.5 °F 71.4 °F 29.79 in SSE 0.7 mph 3.5 mph 93 % 0.00 in
00:26 73.5 °F 71.4 °F 29.79 in SSW 2.6 mph 7.0 mph 93 % 0.00 in
00:31 73.5 °F 71.4 °F 29.79 in SE 1.5 mph 3.5 mph 93 % 0.00 in
00:36 73.4 °F 71.3 °F 29.79 in South 1.5 mph 3.5 mph 93 % 0.00 in
00:41 73.4 °F 71.3 °F 29.79 in SSE 1.6 mph 5.8 mph 93 % 0.00 in
00:46 73.3 °F 71.2 °F 29.79 in SSE 1.0 mph 5.8 mph 93 % 0.00 in
00:51 73.3 °F 71.2 °F 29.79 in SE 2.4 mph 4.6 mph 93 % 0.00 in
00:56 73.2 °F 71.1 °F 29.79 in SSW 2.0 mph 4.0 mph 93 % 0.00 in
01:06 73.1 °F 71.0 °F 29.79 in South 1.1 mph 3.5 mph 93 % 0.00 in
01:11 73.1 °F 71.3 °F 29.78 in SSW 1.7 mph 4.6 mph 94 % 0.00 in
01:16 73.1 °F 71.3 °F 29.78 in SSW 1.5 mph 3.5 mph 94 % 0.00 in
01:21 73.1 °F 71.3 °F 29.78 in SSE 0.5 mph 3.5 mph 94 % 0.00 in
01:26 73.0 °F 71.2 °F 29.78 in SSW 1.5 mph 5.8 mph 94 % 0.00 in
01:31 73.0 °F 71.2 °F 29.78 in South 0.8 mph 3.5 mph 94 % 0.00 in
01:36 73.0 °F 71.2 °F 29.78 in SSW 1.4 mph 3.5 mph 94 % 0.00 in
01:41 73.0 °F 71.2 °F 29.78 in SW 1.1 mph 4.6 mph 94 % 0.00 in
01:46 73.0 °F 71.2 °F 29.78 in South 1.5 mph 3.5 mph 94 % 0.00 in
01:51 72.9 °F 71.1 °F 29.78 in SSW 1.5 mph 3.5 mph 94 % 0.00 in
01:56 72.9 °F 71.1 °F 29.78 in SSW 0.9 mph 4.6 mph 94 % 0.00 in
02:01 72.9 °F 71.1 °F 29.78 in South 1.6 mph 4.6 mph 94 % 0.00 in
02:06 72.9 °F 71.1 °F 29.77 in South 1.2 mph 3.5 mph 94 % 0.00 in
02:11 72.9 °F 71.1 °F 29.77 in South 1.7 mph 4.6 mph 94 % 0.00 in
02:16 72.8 °F 71.0 °F 29.78 in SE 2.2 mph 9.0 mph 94 % 0.00 in
02:21 72.8 °F 71.0 °F 29.77 in SSE 1.0 mph 4.6 mph 94 % 0.00 in
02:26 72.8 °F 71.0 °F 29.77 in South 1.1 mph 6.9 mph 94 % 0.00 in
02:31 72.8 °F 71.0 °F 29.78 in SE 1.4 mph 3.5 mph 94 % 0.00 in
02:36 72.8 °F 71.0 °F 29.78 in SSW 1.7 mph 6.0 mph 94 % 0.00 in
02:41 72.8 °F 71.0 °F 29.78 in SE 2.9 mph 4.6 mph 94 % 0.00 in
02:46 72.8 °F 71.0 °F 29.78 in SSE 1.6 mph 4.6 mph 94 % 0.00 in
02:51 72.8 °F 71.0 °F 29.78 in SE 1.0 mph 2.3 mph 94 % 0.00 in
02:56 72.8 °F 71.0 °F 29.78 in SE 1.4 mph 4.0 mph 94 % 0.00 in
03:02 72.9 °F 71.1 °F 29.78 in SSE 0.5 mph 3.5 mph 94 % 0.00 in
03:07 72.9 °F 71.1 °F 29.78 in South 0.7 mph 3.5 mph 94 % 0.00 in
03:12 73.0 °F 71.2 °F 29.78 in SSW 1.3 mph 4.6 mph 94 % 0.00 in
03:17 73.0 °F 71.2 °F 29.78 in SSW 1.0 mph 3.5 mph 94 % 0.00 in
03:22 73.0 °F 71.2 °F 29.78 in South 1.1 mph 3.5 mph 94 % 0.00 in
03:27 73.0 °F 71.2 °F 29.77 in SSW 1.1 mph 3.5 mph 94 % 0.00 in
03:32 72.9 °F 71.1 °F 29.78 in SSE 2.4 mph 4.6 mph 94 % 0.00 in
03:37 72.9 °F 71.1 °F 29.78 in South 0.6 mph 2.3 mph 94 % 0.00 in
03:42 72.9 °F 71.1 °F 29.78 in SSE 1.0 mph 4.6 mph 94 % 0.00 in
03:47 72.9 °F 71.1 °F 29.78 in SE 1.3 mph 5.8 mph 94 % 0.00 in
03:52 72.8 °F 71.0 °F 29.78 in WSW 1.7 mph 4.0 mph 94 % 0.00 in
03:57 72.8 °F 71.0 °F 29.78 in SSE 2.8 mph 5.8 mph 94 % 0.00 in
04:02 72.7 °F 70.9 °F 29.78 in SSE 1.5 mph 5.8 mph 94 % 0.00 in
04:07 72.7 °F 70.9 °F 29.78 in South 1.8 mph 6.9 mph 94 % 0.00 in
04:12 72.7 °F 70.9 °F 29.78 in South 1.4 mph 3.0 mph 94 % 0.00 in
04:17 72.6 °F 70.8 °F 29.78 in South 0.3 mph 3.5 mph 94 % 0.00 in
04:22 72.6 °F 70.8 °F 29.78 in SSE 0.9 mph 3.5 mph 94 % 0.00 in
04:27 72.6 °F 70.8 °F 29.78 in South 0.2 mph 2.3 mph 94 % 0.00 in
04:32 72.5 °F 70.7 °F 29.78 in SSW 0.3 mph 1.2 mph 94 % 0.00 in
04:37 72.5 °F 70.7 °F 29.79 in WSW 0.5 mph 3.5 mph 94 % 0.00 in
04:42 72.5 °F 70.7 °F 29.78 in SE 1.5 mph 3.5 mph 94 % 0.00 in
04:47 72.4 °F 70.6 °F 29.79 in SSE 1.8 mph 4.6 mph 94 % 0.00 in
04:52 72.4 °F 70.6 °F 29.79 in SSW 0.2 mph 1.2 mph 94 % 0.00 in
04:57 72.4 °F 70.6 °F 29.79 in South 1.5 mph 3.5 mph 94 % 0.00 in
05:02 72.4 °F 70.6 °F 29.79 in SSW 0.6 mph 2.3 mph 94 % 0.00 in
05:07 72.4 °F 70.6 °F 29.79 in SSE 1.7 mph 3.5 mph 94 % 0.00 in
05:12 72.4 °F 70.6 °F 29.79 in SSW 1.4 mph 4.0 mph 94 % 0.00 in
05:17 72.3 °F 70.8 °F 29.79 in South 1.0 mph 2.3 mph 95 % 0.00 in
05:22 72.3 °F 70.8 °F 29.79 in SSE 1.8 mph 3.5 mph 95 % 0.00 in
05:27 72.3 °F 70.8 °F 29.79 in South 1.3 mph 3.0 mph 95 % 0.00 in
05:32 72.3 °F 70.8 °F 29.79 in South 0.8 mph 4.0 mph 95 % 0.00 in
05:37 72.2 °F 70.7 °F 29.80 in South 0.7 mph 3.5 mph 95 % 0.00 in
05:42 72.2 °F 70.7 °F 29.80 in SSW 1.6 mph 3.5 mph 95 % 0.00 in
05:47 72.2 °F 70.7 °F 29.80 in South 1.3 mph 3.5 mph 95 % 0.00 in
05:53 72.3 °F 70.8 °F 29.80 in South 0.2 mph 3.5 mph 95 % 0.00 in
05:57 72.3 °F 70.8 °F 29.80 in SSW 2.1 mph 3.0 mph 95 % 0.00 in
06:02 72.3 °F 70.8 °F 29.80 in ESE 1.8 mph 4.6 mph 95 % 0.00 in
06:08 72.4 °F 70.9 °F 29.80 in SE 0.4 mph 2.3 mph 95 % 0.00 in
06:13 72.4 °F 70.9 °F 29.80 in South 0.8 mph 2.3 mph 95 % 0.00 in
06:18 72.5 °F 71.0 °F 29.80 in WSW 0.7 mph 3.5 mph 95 % 0.00 in
06:23 72.6 °F 71.1 °F 29.80 in SE 0.4 mph 3.5 mph 95 % 0.00 in
06:28 72.7 °F 71.2 °F 29.80 in SSW 1.0 mph 4.6 mph 95 % 0.00 in
06:33 72.9 °F 71.4 °F 29.80 in SE 0.8 mph 2.3 mph 95 % 0.00 in
06:38 73.0 °F 71.5 °F 29.80 in SSW 1.9 mph 5.0 mph 95 % 0.00 in
06:43 73.2 °F 71.7 °F 29.80 in SSW 1.0 mph 4.0 mph 95 % 0.00 in
06:48 73.4 °F 71.6 °F 29.80 in South 2.7 mph 4.0 mph 94 % 0.00 in
06:53 73.6 °F 71.8 °F 29.80 in SSW 1.0 mph 3.5 mph 94 % 0.00 in
06:58 73.9 °F 72.1 °F 29.80 in SW 1.4 mph 3.5 mph 94 % 0.00 in
07:03 74.2 °F 72.4 °F 29.80 in South 1.5 mph 4.6 mph 94 % 0.00 in
07:08 74.5 °F 72.3 °F 29.80 in SSW 2.4 mph 5.8 mph 93 % 0.00 in
07:13 74.8 °F 72.3 °F 29.81 in SSW 1.3 mph 5.8 mph 92 % 0.00 in
07:18 75.0 °F 72.5 °F 29.81 in ESE 2.0 mph 3.0 mph 92 % 0.00 in
07:23 75.3 °F 72.5 °F 29.80 in SSW 2.2 mph 4.6 mph 91 % 0.00 in
07:28 75.5 °F 72.7 °F 29.80 in South 1.2 mph 3.5 mph 91 % 0.00 in
07:33 75.7 °F 72.6 °F 29.80 in South 2.6 mph 4.6 mph 90 % 0.00 in
07:38 75.8 °F 72.7 °F 29.80 in South 0.8 mph 3.5 mph 90 % 0.00 in
07:43 75.9 °F 72.8 °F 29.81 in South 2.4 mph 5.8 mph 90 % 0.00 in
07:48 75.9 °F 72.8 °F 29.81 in ESE 1.1 mph 8.0 mph 90 % 0.00 in
07:53 76.0 °F 72.9 °F 29.81 in SSE 0.8 mph 3.5 mph 90 % 0.00 in
07:58 76.1 °F 73.0 °F 29.81 in SSW 2.6 mph 4.6 mph 90 % 0.00 in
08:03 76.2 °F 73.1 °F 29.81 in SSE 2.7 mph 5.0 mph 90 % 0.00 in
08:08 76.4 °F 73.2 °F 29.81 in South 1.6 mph 3.5 mph 90 % 0.00 in
08:13 76.5 °F 73.3 °F 29.81 in South 3.3 mph 3.5 mph 90 % 0.00 in
08:19 76.7 °F 73.5 °F 29.80 in SSW 1.9 mph 5.8 mph 90 % 0.00 in
08:24 77.0 °F 73.5 °F 29.80 in SSE 3.5 mph 7.0 mph 89 % 0.00 in
08:29 77.1 °F 73.6 °F 29.80 in SE 2.3 mph 6.9 mph 89 % 0.00 in
08:34 77.3 °F 73.5 °F 29.80 in South 2.1 mph 5.8 mph 88 % 0.00 in
08:39 77.6 °F 74.1 °F 29.81 in SSW 2.0 mph 5.8 mph 89 % 0.00 in
08:44 77.8 °F 73.6 °F 29.81 in South 3.1 mph 6.9 mph 87 % 0.00 in
08:49 78.0 °F 73.8 °F 29.81 in SSE 2.9 mph 5.8 mph 87 % 0.00 in
08:54 78.1 °F 73.6 °F 29.80 in South 1.8 mph 4.6 mph 86 % 0.00 in
08:59 78.2 °F 74.0 °F 29.81 in South 2.0 mph 3.5 mph 87 % 0.00 in
09:04 78.2 °F 73.7 °F 29.81 in SW 1.5 mph 5.0 mph 86 % 0.00 in
09:09 78.3 °F 73.8 °F 29.81 in SSW 2.8 mph 4.0 mph 86 % 0.00 in
09:14 78.4 °F 73.9 °F 29.81 in SSE 2.0 mph 9.2 mph 86 % 0.00 in
09:19 78.3 °F 73.8 °F 29.81 in SSE 2.7 mph 4.6 mph 86 % 0.00 in
09:24 78.4 °F 73.9 °F 29.82 in SSW 1.7 mph 8.1 mph 86 % 0.00 in
09:29 78.5 °F 74.0 °F 29.82 in SSW 0.8 mph 4.6 mph 86 % 0.00 in
09:34 78.7 °F 74.2 °F 29.82 in SE 1.9 mph 6.9 mph 86 % 0.00 in
09:35 78.7 °F 74.2 °F 29.81 in SE 1.7 mph 5.8 mph 86 % 0.00 in
09:40 79.1 °F 74.5 °F 29.82 in SW 4.9 mph 8.1 mph 86 % 0.00 in
09:45 79.4 °F 74.5 °F 29.81 in SW 1.6 mph 6.9 mph 85 % 0.00 in
09:50 79.8 °F 74.9 °F 29.82 in WSW 0.2 mph 3.0 mph 85 % 0.00 in
09:56 80.4 °F 75.1 °F 29.82 in SSW 3.0 mph 13.0 mph 84 % 0.00 in
10:01 81.0 °F 75.3 °F 29.82 in SSW 3.7 mph 4.0 mph 83 % 0.00 in
10:05 81.3 °F 74.9 °F 29.82 in SSE 1.1 mph 6.9 mph 81 % 0.00 in
10:11 81.6 °F 75.2 °F 29.82 in SE 2.0 mph 3.5 mph 81 % 0.00 in
10:16 81.7 °F 74.9 °F 29.82 in SSW 1.6 mph 4.0 mph 80 % 0.00 in
10:21 81.8 °F 75.4 °F 29.82 in ESE 0.9 mph 4.0 mph 81 % 0.00 in
10:26 81.7 °F 74.9 °F 29.82 in SSE 2.0 mph 9.0 mph 80 % 0.00 in
10:31 81.8 °F 75.4 °F 29.81 in SSE 1.0 mph 8.0 mph 81 % 0.00 in
10:36 82.0 °F 75.2 °F 29.81 in SSE 1.0 mph 7.0 mph 80 % 0.00 in
10:41 82.4 °F 75.2 °F 29.81 in South 2.0 mph 9.0 mph 79 % 0.00 in
10:46 82.8 °F 75.7 °F 29.82 in South 3.0 mph 9.0 mph 79 % 0.00 in
10:51 83.2 °F 75.6 °F 29.82 in South 2.0 mph 10.0 mph 78 % 0.00 in
10:55 83.4 °F 75.0 °F 29.81 in SE 5.7 mph 12.7 mph 76 % 0.00 in
11:01 83.6 °F 75.6 °F 29.80 in South 2.6 mph 9.2 mph 77 % 0.00 in
11:06 83.9 °F 75.9 °F 29.80 in SW 3.6 mph 7.0 mph 77 % 0.00 in
11:11 84.3 °F 76.3 °F 29.81 in South 0.9 mph 4.6 mph 77 % 0.00 in
11:16 84.3 °F 75.5 °F 29.80 in SSE 2.6 mph 6.9 mph 75 % 0.00 in
11:21 84.2 °F 75.8 °F 29.80 in SSE 2.2 mph 4.6 mph 76 % 0.00 in
11:26 84.5 °F 75.7 °F 29.80 in SE 3.0 mph 7.0 mph 75 % 0.00 in
11:31 84.6 °F 75.4 °F 29.79 in SSE 4.1 mph 10.4 mph 74 % 0.00 in
11:36 84.5 °F 75.3 °F 29.79 in SSE 6.5 mph 12.7 mph 74 % 0.00 in
11:41 84.3 °F 75.1 °F 29.79 in South 3.7 mph 8.1 mph 74 % 0.00 in
11:44 84.3 °F 75.9 °F 29.80 in South 3.6 mph 6.9 mph 76 % 0.00 in
11:49 84.9 °F 76.9 °F 29.80 in WNW 1.0 mph 4.6 mph 77 % 0.00 in
11:54 85.4 °F 76.2 °F 29.80 in SSW 5.5 mph 8.0 mph 74 % 0.00 in
11:59 85.8 °F 76.1 °F 29.79 in SSE 2.3 mph 8.1 mph 73 % 0.00 in
12:04 86.1 °F 76.0 °F 29.79 in South 2.4 mph 5.8 mph 72 % 0.00 in
12:09 85.8 °F 75.7 °F 29.78 in South 1.8 mph 4.6 mph 72 % 0.00 in
12:14 85.9 °F 75.8 °F 29.78 in South 3.0 mph 10.4 mph 72 % 0.00 in
12:19 85.5 °F 75.9 °F 29.78 in SSE 6.1 mph 11.5 mph 73 % 0.00 in
12:24 85.1 °F 75.9 °F 29.77 in SW 2.5 mph 5.8 mph 74 % 0.00 in
12:29 85.3 °F 76.1 °F 29.77 in SE 2.2 mph 4.6 mph 74 % 0.00 in
12:34 85.5 °F 76.7 °F 29.78 in SSW 2.7 mph 6.9 mph 75 % 0.00 in
12:39 85.7 °F 76.0 °F 29.78 in SSW 5.9 mph 11.0 mph 73 % 0.00 in
12:44 85.6 °F 75.9 °F 29.78 in SSE 6.9 mph 9.2 mph 73 % 0.00 in
12:49 85.7 °F 75.6 °F 29.78 in SSW 5.6 mph 13.8 mph 72 % 0.00 in
12:54 85.7 °F 75.2 °F 29.78 in SSE 5.7 mph 5.8 mph 71 % 0.00 in
13:00 85.3 °F 75.2 °F 29.78 in SE 2.1 mph 11.5 mph 72 % 0.00 in
13:04 85.0 °F 75.4 °F 29.77 in South 1.5 mph 5.8 mph 73 % 0.00 in
13:10 84.5 °F 75.3 °F 29.78 in South 3.3 mph 8.0 mph 74 % 0.00 in
13:15 84.7 °F 76.3 °F 29.78 in SE 1.7 mph 5.0 mph 76 % 0.00 in
13:20 85.2 °F 76.4 °F 29.78 in SSE 2.8 mph 9.2 mph 75 % 0.00 in
13:25 85.5 °F 76.3 °F 29.77 in SE 5.2 mph 10.4 mph 74 % 0.00 in
13:30 85.6 °F 75.1 °F 29.77 in South 4.0 mph 6.9 mph 71 % 0.00 in
13:35 85.2 °F 74.7 °F 29.77 in South 4.3 mph 11.5 mph 71 % 0.00 in
13:40 85.0 °F 75.0 °F 29.77 in SSW 4.8 mph 8.1 mph 72 % 0.00 in
13:45 84.7 °F 74.7 °F 29.77 in South 3.5 mph 8.0 mph 72 % 0.00 in
13:50 84.3 °F 74.7 °F 29.77 in SSW 3.5 mph 9.2 mph 73 % 0.00 in
13:55 84.1 °F 74.9 °F 29.77 in SSE 2.8 mph 5.0 mph 74 % 0.00 in
14:00 83.9 °F 74.7 °F 29.77 in SSE 4.8 mph 9.2 mph 74 % 0.00 in
14:05 84.2 °F 75.4 °F 29.76 in South 5.5 mph 8.1 mph 75 % 0.00 in
14:10 84.5 °F 75.3 °F 29.75 in East 5.9 mph 9.2 mph 74 % 0.00 in
14:15 84.9 °F 75.3 °F 29.75 in South 3.7 mph 11.5 mph 73 % 0.00 in
14:20 85.3 °F 75.7 °F 29.75 in West 2.8 mph 6.9 mph 73 % 0.00 in
14:25 85.8 °F 76.1 °F 29.75 in South 5.1 mph 9.0 mph 73 % 0.00 in
14:30 86.1 °F 76.0 °F 29.75 in South 5.9 mph 19.6 mph 72 % 0.00 in
14:36 86.2 °F 75.3 °F 29.74 in South 5.0 mph 10.0 mph 70 % 0.00 in
14:41 86.3 °F 75.4 °F 29.74 in South 5.0 mph 14.0 mph 70 % 0.00 in
14:46 86.2 °F 75.3 °F 29.74 in South 4.7 mph 8.1 mph 70 % 0.00 in
14:51 86.1 °F 75.2 °F 29.73 in South 2.8 mph 6.0 mph 70 % 0.00 in
14:56 86.1 °F 75.2 °F 29.73 in SSW 6.7 mph 9.2 mph 70 % 0.00 in
15:01 85.9 °F 75.0 °F 29.73 in SSW 4.5 mph 8.1 mph 70 % 0.00 in
15:06 85.8 °F 75.7 °F 29.73 in SSW 7.2 mph 11.5 mph 72 % 0.00 in
15:11 85.8 °F 74.9 °F 29.73 in WSW 7.4 mph 12.7 mph 70 % 0.00 in
15:17 85.6 °F 74.7 °F 29.72 in SSE 3.4 mph 8.1 mph 70 % 0.00 in
15:22 85.5 °F 75.0 °F 29.73 in SSW 9.0 mph 15.0 mph 71 % 0.00 in
15:27 85.5 °F 75.4 °F 29.73 in SSW 3.9 mph 8.1 mph 72 % 0.00 in
15:32 85.3 °F 74.8 °F 29.73 in South 7.6 mph 12.7 mph 71 % 0.00 in
15:37 85.1 °F 74.6 °F 29.73 in SSW 4.8 mph 15.0 mph 71 % 0.00 in
15:42 85.0 °F 75.0 °F 29.73 in South 5.1 mph 12.7 mph 72 % 0.00 in
15:47 84.9 °F 74.9 °F 29.74 in South 4.1 mph 10.4 mph 72 % 0.00 in
15:52 84.8 °F 74.3 °F 29.73 in South 4.2 mph 8.1 mph 71 % 0.00 in
15:54 84.8 °F 75.2 °F 29.73 in South 3.6 mph 8.1 mph 73 % 0.00 in
15:59 84.8 °F 74.8 °F 29.74 in South 7.6 mph 12.7 mph 72 % 0.00 in
16:04 84.7 °F 74.3 °F 29.73 in South 5.2 mph 12.7 mph 71 % 0.00 in
16:09 84.8 °F 74.3 °F 29.74 in SSW 4.4 mph 9.2 mph 71 % 0.00 in
16:14 84.6 °F 74.2 °F 29.73 in South 6.9 mph 15.0 mph 71 % 0.00 in
16:19 84.3 °F 73.9 °F 29.73 in SSW 5.2 mph 12.7 mph 71 % 0.00 in
16:24 84.0 °F 74.0 °F 29.73 in South 2.8 mph 6.9 mph 72 % 0.00 in
16:30 84.0 °F 74.4 °F 29.73 in WSW 2.7 mph 11.5 mph 73 % 0.00 in
16:35 83.8 °F 74.2 °F 29.72 in SSW 3.1 mph 10.4 mph 73 % 0.00 in
16:40 83.8 °F 74.2 °F 29.73 in SSE 4.1 mph 13.8 mph 73 % 0.00 in
16:45 83.8 °F 74.2 °F 29.72 in SSW 3.6 mph 9.2 mph 73 % 0.00 in
16:50 83.6 °F 74.4 °F 29.73 in South 8.1 mph 16.1 mph 74 % 0.00 in
16:55 83.4 °F 74.2 °F 29.73 in SW 3.5 mph 11.5 mph 74 % 0.00 in
17:00 83.1 °F 73.9 °F 29.72 in South 6.3 mph 11.5 mph 74 % 0.00 in
17:05 82.5 °F 73.4 °F 29.72 in ESE 5.4 mph 10.4 mph 74 % 0.00 in
17:10 82.0 °F 73.7 °F 29.72 in SSE 4.0 mph 9.2 mph 76 % 0.00 in
17:15 81.6 °F 73.7 °F 29.72 in SSW 4.7 mph 8.1 mph 77 % 0.00 in
17:20 81.2 °F 73.3 °F 29.72 in South 6.1 mph 13.8 mph 77 % 0.00 in
17:25 80.6 °F 73.1 °F 29.73 in South 5.6 mph 11.5 mph 78 % 0.00 in
17:30 80.2 °F 73.1 °F 29.73 in SW 3.2 mph 9.0 mph 79 % 0.00 in
17:35 79.6 °F 72.9 °F 29.73 in SW 4.4 mph 8.1 mph 80 % 0.00 in
17:40 79.1 °F 72.4 °F 29.74 in SW 3.4 mph 11.0 mph 80 % 0.00 in
17:45 78.8 °F 72.5 °F 29.78 in WSW 8.4 mph 17.3 mph 81 % 0.00 in
17:50 78.4 °F 72.4 °F 29.77 in WNW 3.5 mph 11.5 mph 82 % 0.00 in
17:55 78.0 °F 72.1 °F 29.77 in SSW 3.6 mph 6.9 mph 82 % 0.00 in
18:00 77.8 °F 72.2 °F 29.77 in SW 0.6 mph 3.5 mph 83 % 0.00 in
18:05 77.6 °F 72.0 °F 29.77 in SSW 1.4 mph 3.5 mph 83 % 0.00 in
18:10 77.4 °F 72.2 °F 29.77 in SE 0.1 mph 3.5 mph 84 % 0.00 in
18:15 77.3 °F 72.1 °F 29.77 in SE 1.1 mph 3.5 mph 84 % 0.00 in
18:20 77.1 °F 72.2 °F 29.79 in WSW 3.8 mph 5.0 mph 85 % 0.00 in
18:25 77.0 °F 72.8 °F 29.80 in West 2.9 mph 6.0 mph 87 % 0.10 in
18:30 76.6 °F 72.4 °F 29.77 in WSW 0.4 mph 1.2 mph 87 % 0.27 in
18:36 76.3 °F 72.1 °F 29.78 in Calm   1.0 mph 87 % 0.40 in
18:41 75.8 °F 72.0 °F 29.78 in SSE 1.2 mph 3.5 mph 88 % 0.48 in
18:46 75.2 °F 71.7 °F 29.79 in SSE 1.0 mph 3.0 mph 89 % 0.00 in
18:56 74.7 °F 71.9 °F 29.77 in Calm     91 % 0.00 in
19:01 74.5 °F 71.7 °F 29.79 in West 0.2 mph 1.2 mph 91 % 0.50 in
19:06 74.3 °F 71.8 °F 29.81 in SW 1.5 mph 4.0 mph 92 % 0.51 in
19:11 74.1 °F 71.6 °F 29.80 in SE 0.3 mph 3.5 mph 92 % 0.56 in
19:16 73.8 °F 71.3 °F 29.81 in WSW 1.3 mph 3.5 mph 92 % 0.61 in
19:21 73.6 °F 71.4 °F 29.80 in Calm     93 % 0.67 in
19:31 73.4 °F 71.3 °F 29.81 in WSW 0.7 mph 2.3 mph 93 % 0.40 in
19:32 73.4 °F 71.3 °F 29.81 in WSW 3.1 mph 5.0 mph 93 % 0.40 in
19:37 73.2 °F 71.1 °F 29.81 in WSW 0.4 mph 2.0 mph 93 % 0.26 in
19:42 73.1 °F 71.0 °F 29.81 in Calm   1.2 mph 93 % 0.23 in
19:47 73.0 °F 70.9 °F 29.80 in WSW 0.1 mph 1.2 mph 93 % 0.24 in
19:52 73.0 °F 71.2 °F 29.80 in WSW 2.4 mph 4.0 mph 94 % 0.25 in
19:57 72.9 °F 71.1 °F 29.81 in Calm     94 % 0.25 in
20:02 72.7 °F 70.9 °F 29.80 in WNW 1.7 mph 5.8 mph 94 % 0.27 in
20:07 72.5 °F 70.4 °F 29.81 in West 2.4 mph 3.5 mph 93 % 0.28 in
20:12 72.4 °F 70.3 °F 29.81 in Calm     93 % 0.23 in
20:17 72.2 °F 70.1 °F 29.81 in Calm   2.3 mph 93 % 0.18 in
20:22 72.1 °F 70.3 °F 29.81 in Calm   1.2 mph 94 % 0.15 in
20:27 72.1 °F 70.3 °F 29.82 in Calm   1.2 mph 94 % 0.14 in
20:32 72.0 °F 70.2 °F 29.82 in West 0.5 mph 2.3 mph 94 % 0.14 in
20:37 72.0 °F 70.5 °F 29.82 in Calm   1.2 mph 95 % 0.15 in
20:42 71.9 °F 70.4 °F 29.82 in WSW 0.9 mph 3.0 mph 95 % 0.15 in
20:47 71.8 °F 70.3 °F 29.81 in WSW 0.9 mph 2.3 mph 95 % 0.14 in
20:52 71.7 °F 70.2 °F 29.80 in WSW 0.4 mph 2.3 mph 95 % 0.14 in
20:57 71.6 °F 70.1 °F 29.80 in South 0.1 mph 1.2 mph 95 % 0.14 in
21:02 71.4 °F 69.9 °F 29.80 in Calm     95 % 0.13 in
21:07 71.3 °F 69.8 °F 29.80 in South 0.3 mph 1.2 mph 95 % 0.12 in
21:13 71.1 °F 69.6 °F 29.81 in SSW 0.3 mph 2.3 mph 95 % 0.11 in
21:14 71.1 °F 69.6 °F 29.81 in Calm     95 % 0.12 in
21:19 70.9 °F 69.4 °F 29.82 in SW 0.3 mph 1.2 mph 95 % 0.10 in
21:24 70.8 °F 69.3 °F 29.82 in Calm   1.2 mph 95 % 0.10 in
21:29 70.7 °F 69.2 °F 29.82 in Calm     95 % 0.09 in
21:34 70.5 °F 69.0 °F 29.82 in Calm   2.3 mph 95 % 0.09 in
21:39 70.4 °F 68.9 °F 29.82 in SW 0.7 mph 2.3 mph 95 % 0.08 in
21:45 70.3 °F 68.8 °F 29.83 in SW 0.8 mph 2.3 mph 95 % 0.07 in
21:50 70.1 °F 68.6 °F 29.83 in SSE 0.5 mph 2.3 mph 95 % 0.07 in
21:55 70.0 °F 68.5 °F 29.83 in South 1.0 mph 3.5 mph 95 % 0.06 in
22:00 69.9 °F 68.4 °F 29.84 in South 0.7 mph 2.3 mph 95 % 0.05 in
22:05 69.9 °F 68.4 °F 29.84 in SSE 0.5 mph 1.2 mph 95 % 0.05 in
22:10 69.8 °F 68.3 °F 29.84 in SW 1.6 mph 4.0 mph 95 % 0.05 in
22:15 69.7 °F 68.2 °F 29.84 in South 0.4 mph 4.0 mph 95 % 0.05 in
22:20 69.7 °F 68.5 °F 29.84 in SSE 0.8 mph 3.5 mph 96 % 0.04 in
22:25 69.6 °F 68.4 °F 29.84 in SSE 2.5 mph 5.0 mph 96 % 0.04 in
22:30 69.5 °F 68.3 °F 29.84 in SSE 0.1 mph 1.2 mph 96 % 0.03 in
22:35 69.5 °F 68.3 °F 29.83 in SSW 0.7 mph 1.2 mph 96 % 0.03 in
22:40 69.5 °F 68.3 °F 29.83 in ESE 0.2 mph 2.3 mph 96 % 0.03 in
22:45 69.5 °F 68.3 °F 29.83 in ESE 0.2 mph 1.0 mph 96 % 0.03 in
22:50 69.5 °F 68.3 °F 29.84 in ESE 0.1 mph 2.3 mph 96 % 0.02 in
22:56 69.5 °F 68.3 °F 29.84 in Calm   5.0 mph 96 % 0.00 in
23:01 69.5 °F 68.3 °F 29.84 in SSW 1.2 mph 3.5 mph 96 % 0.02 in
23:06 69.4 °F 68.2 °F 29.83 in South 2.2 mph 6.9 mph 96 % 0.01 in
23:11 69.4 °F 68.2 °F 29.84 in SSE 0.4 mph 3.5 mph 96 % 0.01 in
23:16 69.4 °F 68.2 °F 29.84 in SSW 0.8 mph 3.5 mph 96 % 0.00 in
23:21 69.4 °F 68.2 °F 29.84 in Calm   2.3 mph 96 % 0.00 in
23:26 69.4 °F 68.2 °F 29.84 in WSW 0.2 mph 1.2 mph 96 % 0.00 in
23:31 69.3 °F 68.1 °F 29.84 in South 0.3 mph 3.5 mph 96 % 0.00 in
23:36 69.3 °F 68.1 °F 29.84 in SSW 0.3 mph 3.5 mph 96 % 0.00 in
23:41 69.3 °F 68.1 °F 29.84 in SE 1.1 mph 2.0 mph 96 % 0.00 in
23:46 69.3 °F 68.1 °F 29.84 in Calm   2.3 mph 96 % 0.00 in
23:51 69.3 °F 68.1 °F 29.84 in SSW 0.7 mph 3.5 mph 96 % 0.00 in
23:56 69.3 °F 68.1 °F 29.84 in SE 0.5 mph 3.5 mph 96 % 0.00 in
Crab Meadow Weather
Compliments of Weather Underground - 3 mb

Script developed by  Jim McMurry - jmcmurry@mwt.net Adapted for the template by  Wim van der Kuil - Leuven-Template.eu

Clouds: Mostly Cloudy or Considerable Cloudiness indicate about 75 percent cloud coverage.